Time;durP1;ratioP1;P1;durP2;ratioP2;P2;SDS_P1;SDS_P2;PMS_P1;PMS_P2;Temp;Humidity;BMP_temperature;BMP_pressure;BME280_temperature;BME280_humidity;BME280_pressure;Samples;Min_cycle;Max_cycle;Signal;HPM_P1;HPM_P2
2023/03/16 00:00:12;;;;;;;1.07;0.90;;;1.60;99.90;;;;;;5073665;28;20797;-79
2023/03/16 00:02:40;;;;;;;1.47;0.73;;;1.60;99.90;;;;;;5073659;28;20525;-79
2023/03/16 00:05:07;;;;;;;0.70;0.70;;;1.60;99.90;;;;;;5073287;28;20454;-79
2023/03/16 00:07:35;;;;;;;0.50;0.50;;;1.60;99.90;;;;;;5073177;28;20977;-79
2023/03/16 00:10:03;;;;;;;0.30;0.30;;;1.60;99.90;;;;;;5073562;28;20424;-79
2023/03/16 00:12:33;;;;;;;2.40;1.40;;;1.60;99.90;;;;;;5073393;28;20504;-79
2023/03/16 00:15:00;;;;;;;2.57;0.70;;;1.60;99.90;;;;;;5073161;28;20950;-79
2023/03/16 00:17:27;;;;;;;0.60;0.60;;;1.70;99.90;;;;;;5073402;28;20425;-79
2023/03/16 00:19:56;;;;;;;1.07;1.00;;;1.60;99.90;;;;;;5073044;28;20986;-79
2023/03/16 00:22:24;;;;;;;2.50;1.17;;;1.60;99.90;;;;;;5073155;28;20408;-79
2023/03/16 00:24:52;;;;;;;0.43;0.43;;;1.60;99.90;;;;;;5073364;28;20445;-79
2023/03/16 00:27:22;;;;;;;1.23;0.70;;;1.60;99.90;;;;;;5073343;28;20446;-79
2023/03/16 00:29:54;;;;;;;2.40;1.30;;;1.60;99.90;;;;;;5073477;28;20470;-79
2023/03/16 00:32:23;;;;;;;1.13;0.50;;;1.60;99.90;;;;;;5073207;28;20523;-79
2023/03/16 00:34:50;;;;;;;0.50;0.50;;;1.60;99.90;;;;;;5072978;28;20413;-79
2023/03/16 00:37:18;;;;;;;1.17;1.17;;;1.60;99.90;;;;;;5073222;28;20577;-79
2023/03/16 00:39:46;;;;;;;1.60;0.93;;;1.50;99.90;;;;;;5073209;28;20469;-79
2023/03/16 00:42:14;;;;;;;1.07;0.70;;;1.50;99.90;;;;;;5073214;28;20449;-79
2023/03/16 00:44:42;;;;;;;0.70;0.47;;;1.50;99.90;;;;;;5072897;28;20909;-79
2023/03/16 00:47:13;;;;;;;0.53;0.53;;;1.50;99.90;;;;;;5072779;28;20477;-79
2023/03/16 00:49:41;;;;;;;1.50;0.60;;;1.40;99.90;;;;;;5072758;28;20976;-79
2023/03/16 00:52:13;;;;;;;1.17;1.10;;;1.40;99.90;;;;;;5072763;28;20478;-79
2023/03/16 00:54:41;;;;;;;1.13;0.60;;;1.40;99.90;;;;;;5073133;28;20458;-78
2023/03/16 00:57:10;;;;;;;0.47;0.47;;;1.40;99.90;;;;;;5073072;28;20449;-79
2023/03/16 00:59:37;;;;;;;1.60;1.17;;;1.40;99.90;;;;;;5072963;28;20465;-79
2023/03/16 01:02:07;;;;;;;1.10;0.77;;;1.30;99.90;;;;;;5073018;28;20441;-78
2023/03/16 01:04:34;;;;;;;3.90;1.53;;;1.30;99.90;;;;;;5073512;28;20456;-79
2023/03/16 01:07:01;;;;;;;0.40;0.40;;;1.20;99.90;;;;;;5073010;28;20476;-79
2023/03/16 01:09:28;;;;;;;0.80;0.73;;;1.20;99.90;;;;;;5072836;28;20473;-79
2023/03/16 01:11:55;;;;;;;3.23;1.00;;;1.20;99.90;;;;;;5072916;28;20454;-79
2023/03/16 01:14:23;;;;;;;0.47;0.47;;;1.20;99.90;;;;;;5072519;28;20489;-79
2023/03/16 01:16:50;;;;;;;0.40;0.40;;;1.20;99.90;;;;;;5075043;28;20453;-79
2023/03/16 01:19:18;;;;;;;3.03;0.90;;;1.20;99.90;;;;;;5076266;28;20472;-79
2023/03/16 01:21:45;;;;;;;0.50;0.50;;;1.20;99.90;;;;;;5076593;28;20416;-79
2023/03/16 01:24:12;;;;;;;3.17;0.80;;;1.30;99.90;;;;;;5076242;28;20802;-78
2023/03/16 01:26:39;;;;;;;0.83;0.70;;;1.20;99.90;;;;;;5076199;28;20450;-78
2023/03/16 01:29:06;;;;;;;1.63;0.93;;;1.30;99.90;;;;;;5076423;28;20436;-79
2023/03/16 01:31:33;;;;;;;2.93;0.83;;;1.30;99.90;;;;;;5076139;28;20431;-79
2023/03/16 01:34:01;;;;;;;1.40;0.97;;;1.30;99.90;;;;;;5076632;28;20477;-79
2023/03/16 01:36:30;;;;;;;0.63;0.63;;;1.30;99.90;;;;;;5076469;28;20480;-79
2023/03/16 01:38:57;;;;;;;0.93;0.73;;;1.30;99.90;;;;;;5076256;28;20775;-79
2023/03/16 01:41:24;;;;;;;0.63;0.50;;;1.30;99.90;;;;;;5076345;28;20447;-79
2023/03/16 01:43:52;;;;;;;0.53;0.53;;;1.30;99.90;;;;;;5076146;28;20570;-79
2023/03/16 01:46:23;;;;;;;0.43;0.43;;;1.30;99.90;;;;;;5075716;28;20492;-79
2023/03/16 01:49:04;;;;;;;0.60;0.50;;;1.20;99.90;;;;;;5076104;28;20436;-79
2023/03/16 01:51:37;;;;;;;0.40;0.40;;;1.20;99.90;;;;;;5075813;28;20412;-79
2023/03/16 01:54:08;;;;;;;0.43;0.43;;;1.20;99.90;;;;;;5075998;28;20466;-79
2023/03/16 01:56:39;;;;;;;2.10;0.63;;;1.20;99.90;;;;;;5076075;28;20407;-79
2023/03/16 01:59:11;;;;;;;0.70;0.70;;;1.20;99.90;;;;;;5075721;28;20435;-79
2023/03/16 02:01:37;;;;;;;0.80;0.50;;;1.20;99.90;;;;;;5075975;28;20430;-79
2023/03/16 02:04:13;;;;;;;0.80;0.70;;;1.10;99.90;;;;;;5075864;28;20448;-80
2023/03/16 02:06:42;;;;;;;1.17;0.80;;;1.10;99.90;;;;;;5075894;28;20490;-79
2023/03/16 02:09:10;;;;;;;0.97;0.60;;;1.10;99.90;;;;;;5075669;28;20492;-79
2023/03/16 02:11:37;;;;;;;0.93;0.50;;;1.20;99.90;;;;;;5075395;28;20449;-79
2023/03/16 02:14:09;;;;;;;3.03;0.90;;;1.10;99.90;;;;;;5075635;28;20563;-79
2023/03/16 02:16:36;;;;;;;0.90;0.90;;;1.20;99.90;;;;;;5075411;28;20400;-79
2023/03/16 02:19:07;;;;;;;0.50;0.50;;;1.20;99.90;;;;;;5075212;28;20955;-79
2023/03/16 02:21:41;;;;;;;1.23;0.90;;;1.10;99.90;;;;;;5075619;28;20408;-79
2023/03/16 02:24:09;;;;;;;3.53;0.53;;;1.10;99.90;;;;;;5075562;28;20408;-79
2023/03/16 02:26:43;;;;;;;0.40;0.40;;;1.10;99.90;;;;;;5075411;28;20449;-79
2023/03/16 02:29:31;;;;;;;0.97;0.70;;;1.10;99.90;;;;;;5075414;28;20440;-79
2023/03/16 02:32:01;;;;;;;0.53;0.53;;;1.10;99.90;;;;;;5075156;28;20411;-79
2023/03/16 02:34:29;;;;;;;0.60;0.50;;;1.20;99.90;;;;;;5075281;28;20517;-79
2023/03/16 02:36:58;;;;;;;0.33;0.33;;;1.10;99.90;;;;;;5075255;28;20431;-79
2023/03/16 02:39:24;;;;;;;0.40;0.30;;;1.20;99.90;;;;;;5075180;28;20448;-78
2023/03/16 02:41:51;;;;;;;0.30;0.30;;;1.10;99.90;;;;;;5075166;28;20453;-78
2023/03/16 02:44:23;;;;;;;1.10;0.43;;;1.10;99.90;;;;;;5075281;28;20446;-78
2023/03/16 02:46:51;;;;;;;2.10;0.43;;;1.10;99.90;;;;;;5074740;28;20558;-78
2023/03/16 02:49:24;;;;;;;1.33;0.83;;;1.10;99.90;;;;;;5074949;28;20440;-78
2023/03/16 02:51:51;;;;;;;0.43;0.43;;;1.10;99.90;;;;;;5075006;28;20434;-79
2023/03/16 02:54:18;;;;;;;0.77;0.50;;;1.10;99.90;;;;;;5074845;28;20467;-79
2023/03/16 02:56:45;;;;;;;0.70;0.70;;;1.10;99.90;;;;;;5074845;28;20432;-79
2023/03/16 02:59:12;;;;;;;0.30;0.30;;;1.10;99.90;;;;;;5074765;28;20472;-79
2023/03/16 03:01:38;;;;;;;0.40;0.40;;;1.10;99.90;;;;;;5074775;28;20456;-79
2023/03/16 03:04:06;;;;;;;0.50;0.47;;;1.10;99.90;;;;;;5074749;28;20420;-79
2023/03/16 03:06:34;;;;;;;0.57;0.57;;;1.10;99.90;;;;;;5074403;28;20412;-79
2023/03/16 03:09:01;;;;;;;1.27;1.17;;;1.10;99.90;;;;;;5074526;28;20496;-82
2023/03/16 03:11:29;;;;;;;3.70;1.03;;;1.10;99.90;;;;;;5074547;28;20940;-83
2023/03/16 03:13:56;;;;;;;2.30;0.80;;;1.00;99.90;;;;;;5074129;28;20477;-83
2023/03/16 03:16:23;;;;;;;3.33;0.67;;;1.00;99.90;;;;;;5074659;28;20424;-82
2023/03/16 03:18:51;;;;;;;0.70;0.70;;;1.00;99.90;;;;;;5074411;28;20497;-82
2023/03/16 03:21:18;;;;;;;1.00;0.53;;;1.00;99.90;;;;;;5074064;28;20802;-83
2023/03/16 03:23:46;;;;;;;0.40;0.40;;;1.00;99.90;;;;;;5074353;28;20420;-83
2023/03/16 03:26:14;;;;;;;1.07;0.97;;;1.00;99.90;;;;;;5074309;28;20428;-83
2023/03/16 03:28:41;;;;;;;0.90;0.90;;;1.00;99.90;;;;;;5074249;28;21066;-83
2023/03/16 03:31:13;;;;;;;2.20;1.23;;;0.90;99.90;;;;;;5073963;28;20946;-83
2023/03/16 03:33:40;;;;;;;2.40;0.50;;;0.90;99.90;;;;;;5074148;28;20447;-83
2023/03/16 03:36:07;;;;;;;0.60;0.60;;;0.90;99.90;;;;;;5074142;28;20427;-83
2023/03/16 03:38:34;;;;;;;0.30;0.30;;;0.80;99.90;;;;;;5073496;28;20473;-83
2023/03/16 03:41:02;;;;;;;0.30;0.20;;;0.90;99.90;;;;;;5074024;28;20457;-83
2023/03/16 03:43:30;;;;;;;0.50;0.50;;;0.90;99.90;;;;;;5073654;28;20442;-83
2023/03/16 03:45:57;;;;;;;3.03;0.67;;;0.90;99.90;;;;;;5073675;28;20485;-83
2023/03/16 03:48:24;;;;;;;0.47;0.47;;;0.80;99.90;;;;;;5073843;28;20474;-83
2023/03/16 03:50:51;;;;;;;0.60;0.60;;;0.80;99.90;;;;;;5073841;28;20431;-83
2023/03/16 03:53:18;;;;;;;1.10;0.67;;;0.80;99.90;;;;;;5073532;28;20459;-82
2023/03/16 03:55:45;;;;;;;0.40;0.30;;;0.80;99.90;;;;;;5073791;28;20450;-83
2023/03/16 03:58:13;;;;;;;0.97;0.97;;;0.80;99.90;;;;;;5073669;28;20465;-83
2023/03/16 04:00:39;;;;;;;1.10;0.47;;;0.80;99.90;;;;;;5073713;28;20427;-83
2023/03/16 04:03:06;;;;;;;0.40;0.30;;;0.80;99.90;;;;;;5073677;28;20456;-83
2023/03/16 04:05:33;;;;;;;6.03;1.40;;;0.90;99.90;;;;;;5073374;28;20420;-83
2023/03/16 04:08:00;;;;;;;0.30;0.30;;;0.90;99.90;;;;;;5073567;28;20437;-83
2023/03/16 04:10:28;;;;;;;0.47;0.47;;;0.90;99.90;;;;;;5073574;28;20457;-83
2023/03/16 04:12:56;;;;;;;0.57;0.57;;;0.90;99.90;;;;;;5073479;28;20453;-83
2023/03/16 04:15:24;;;;;;;0.60;0.47;;;0.90;99.90;;;;;;5073505;28;20424;-83
2023/03/16 04:17:51;;;;;;;0.93;0.93;;;0.90;99.90;;;;;;5073951;28;20469;-83
2023/03/16 04:20:19;;;;;;;0.60;0.60;;;0.90;99.90;;;;;;5073487;28;20419;-83
2023/03/16 04:22:47;;;;;;;0.50;0.50;;;0.90;99.90;;;;;;5073195;28;20939;-83
2023/03/16 04:25:15;;;;;;;7.90;1.30;;;0.90;99.90;;;;;;5073134;28;20948;-83
2023/03/16 04:27:42;;;;;;;0.40;0.40;;;0.90;99.90;;;;;;5073342;28;20424;-83
2023/03/16 04:30:12;;;;;;;1.87;1.00;;;0.90;99.90;;;;;;5073363;28;20441;-83
2023/03/16 04:32:40;;;;;;;0.77;0.77;;;0.80;99.90;;;;;;5073383;28;20461;-83
2023/03/16 04:35:08;;;;;;;0.60;0.53;;;0.80;99.90;;;;;;5073243;28;20517;-83
2023/03/16 04:37:34;;;;;;;0.40;0.37;;;0.80;99.90;;;;;;5073262;28;20453;-83
2023/03/16 04:40:08;;;;;;;1.03;0.93;;;0.70;99.90;;;;;;5073078;28;20908;-83
2023/03/16 04:42:35;;;;;;;0.30;0.30;;;0.70;99.90;;;;;;5073300;28;20472;-83
2023/03/16 04:45:02;;;;;;;0.80;0.80;;;0.70;99.90;;;;;;5073254;28;20466;-83
2023/03/16 04:47:32;;;;;;;1.33;0.70;;;0.70;99.90;;;;;;5072716;28;20966;-83
2023/03/16 04:50:01;;;;;;;1.40;1.30;;;0.70;99.90;;;;;;5072951;28;20448;-83
2023/03/16 04:52:28;;;;;;;0.70;0.70;;;0.70;99.90;;;;;;5076264;28;20424;-83
2023/03/16 04:54:55;;;;;;;0.60;0.50;;;0.70;99.90;;;;;;5077175;28;20477;-83
2023/03/16 04:57:22;;;;;;;0.33;0.33;;;0.70;99.90;;;;;;5077203;28;20440;-83
2023/03/16 04:59:49;;;;;;;1.27;1.17;;;0.70;99.90;;;;;;5076826;28;20976;-83
2023/03/16 05:02:16;;;;;;;1.50;0.60;;;0.70;99.90;;;;;;5077660;28;20420;-82
2023/03/16 05:04:43;;;;;;;0.70;0.70;;;0.70;99.90;;;;;;5076875;28;20442;-83
2023/03/16 05:07:11;;;;;;;0.60;0.60;;;0.60;99.90;;;;;;5076805;28;20449;-82
2023/03/16 05:09:38;;;;;;;2.10;0.70;;;0.60;99.90;;;;;;5082268;28;20469;-83
2023/03/16 05:12:05;;;;;;;0.53;0.53;;;0.60;99.90;;;;;;5077009;28;20446;-83
2023/03/16 05:14:34;;;;;;;0.70;0.70;;;0.50;99.90;;;;;;5076893;28;20568;-83
2023/03/16 05:17:02;;;;;;;4.67;0.60;;;0.50;99.90;;;;;;5076882;28;20438;-83
2023/03/16 05:19:29;;;;;;;0.70;0.70;;;0.50;99.90;;;;;;5076657;28;20496;-83
2023/03/16 05:21:57;;;;;;;1.40;0.60;;;0.50;99.90;;;;;;5076706;28;20446;-83
2023/03/16 05:24:25;;;;;;;0.50;0.50;;;0.50;99.90;;;;;;5076681;28;20445;-83
2023/03/16 05:26:52;;;;;;;0.50;0.50;;;0.50;99.90;;;;;;5076377;28;20433;-83
2023/03/16 05:29:19;;;;;;;0.73;0.40;;;0.50;99.90;;;;;;5076445;28;20443;-83
2023/03/16 05:31:46;;;;;;;5.43;1.00;;;0.40;99.90;;;;;;5076629;28;20419;-83
2023/03/16 05:34:13;;;;;;;1.70;0.80;;;0.40;99.90;;;;;;5076422;28;20481;-83
2023/03/16 05:36:40;;;;;;;0.60;0.60;;;0.40;99.90;;;;;;5076616;28;20439;-83
2023/03/16 05:39:07;;;;;;;0.60;0.60;;;0.40;99.90;;;;;;5076401;28;20453;-82
2023/03/16 05:41:35;;;;;;;0.47;0.33;;;0.40;99.90;;;;;;5076126;28;21035;-82
2023/03/16 05:44:03;;;;;;;0.80;0.40;;;0.40;99.90;;;;;;5076333;28;20916;-83
2023/03/16 05:46:30;;;;;;;0.77;0.70;;;0.40;99.90;;;;;;5075961;28;20451;-83
2023/03/16 05:48:56;;;;;;;2.03;1.90;;;0.40;99.90;;;;;;5075861;28;20966;-83
2023/03/16 05:51:25;;;;;;;0.33;0.33;;;0.40;99.90;;;;;;5076118;28;20477;-83
2023/03/16 05:53:55;;;;;;;0.50;0.50;;;0.40;99.90;;;;;;5075720;28;21001;-83
2023/03/16 05:56:22;;;;;;;0.60;0.60;;;0.40;99.90;;;;;;5076100;28;20435;-83
2023/03/16 05:58:51;;;;;;;0.97;0.50;;;0.40;99.90;;;;;;5075591;28;20451;-83
2023/03/16 06:01:19;;;;;;;1.30;0.70;;;0.50;99.90;;;;;;5075502;28;20450;-83
2023/03/16 06:03:45;;;;;;;0.90;0.80;;;0.50;99.90;;;;;;5075779;28;20423;-83
2023/03/16 06:06:12;;;;;;;1.00;0.93;;;0.50;99.90;;;;;;5075919;28;20424;-83
2023/03/16 06:08:39;;;;;;;1.27;1.17;;;0.60;99.90;;;;;;5075766;28;20451;-83
2023/03/16 06:11:06;;;;;;;0.50;0.50;;;0.60;99.90;;;;;;5075610;28;20803;-83
2023/03/16 06:13:33;;;;;;;0.30;0.30;;;0.70;99.90;;;;;;5075668;28;20445;-83
2023/03/16 06:16:01;;;;;;;1.53;0.60;;;0.70;99.90;;;;;;5075410;28;20431;-82
2023/03/16 06:18:28;;;;;;;0.60;0.60;;;0.70;99.90;;;;;;5075632;28;20469;-83
2023/03/16 06:20:55;;;;;;;0.60;0.60;;;1.10;99.90;;;;;;5075587;28;20460;-83
2023/03/16 06:23:21;;;;;;;0.53;0.53;;;1.50;99.90;;;;;;5075599;28;20445;-83
2023/03/16 06:25:48;;;;;;;0.87;0.87;;;2.00;99.90;;;;;;5075528;28;20503;-83
2023/03/16 06:28:15;;;;;;;1.27;0.77;;;2.20;99.90;;;;;;5075096;28;20970;-83
2023/03/16 06:30:42;;;;;;;1.10;0.60;;;2.30;99.90;;;;;;5075131;28;20961;-83
2023/03/16 06:33:10;;;;;;;8.77;0.80;;;2.50;99.90;;;;;;5075386;28;20449;-83
2023/03/16 06:35:37;;;;;;;0.60;0.60;;;2.50;99.90;;;;;;5075303;28;20855;-84
2023/03/16 06:38:04;;;;;;;1.80;1.03;;;2.50;99.90;;;;;;5075235;28;20484;-82
2023/03/16 06:40:31;;;;;;;1.13;0.60;;;2.30;99.90;;;;;;5075221;28;20452;-82
2023/03/16 06:42:57;;;;;;;1.50;1.03;;;2.20;99.90;;;;;;5074907;28;20959;-82
2023/03/16 06:45:24;;;;;;;0.40;0.40;;;2.10;99.90;;;;;;5074970;28;20438;-81
2023/03/16 06:47:51;;;;;;;1.00;1.00;;;2.00;99.90;;;;;;5075047;28;20470;-82
2023/03/16 06:50:19;;;;;;;0.60;0.60;;;2.00;99.90;;;;;;5075096;28;20456;-82
2023/03/16 06:52:46;;;;;;;0.77;0.60;;;1.90;99.90;;;;;;5074720;28;20450;-82
2023/03/16 06:55:13;;;;;;;0.70;0.70;;;1.90;99.90;;;;;;5074566;28;21007;-82
2023/03/16 06:57:40;;;;;;;0.60;0.57;;;1.90;99.90;;;;;;5074799;28;20489;-82
2023/03/16 07:00:09;;;;;;;0.50;0.50;;;1.90;99.90;;;;;;5074825;28;20540;-82
2023/03/16 07:02:38;;;;;;;0.60;0.60;;;1.90;99.90;;;;;;5074940;28;20437;-82
2023/03/16 07:05:05;;;;;;;1.70;0.83;;;1.90;99.90;;;;;;5074901;28;20502;-82
2023/03/16 07:07:33;;;;;;;1.13;0.67;;;2.10;99.90;;;;;;5074679;28;20476;-81
2023/03/16 07:10:00;;;;;;;0.60;0.40;;;2.10;99.90;;;;;;5074726;28;20456;-82
2023/03/16 07:12:27;;;;;;;0.80;0.80;;;2.10;99.90;;;;;;5074745;28;20456;-82
2023/03/16 07:14:54;;;;;;;0.60;0.60;;;2.20;99.90;;;;;;5073782;28;20488;-82
2023/03/16 07:17:21;;;;;;;3.13;1.00;;;2.30;99.90;;;;;;5074481;28;20448;-82
2023/03/16 07:19:47;;;;;;;0.60;0.60;;;2.30;99.90;;;;;;5074146;28;20859;-82
2023/03/16 07:22:14;;;;;;;2.10;0.80;;;2.30;99.90;;;;;;5074156;28;20429;-83
2023/03/16 07:24:43;;;;;;;0.30;0.30;;;2.30;99.90;;;;;;5074329;28;20448;-83
2023/03/16 07:27:09;;;;;;;1.00;0.87;;;2.50;99.90;;;;;;5074335;28;20450;-83
2023/03/16 07:29:36;;;;;;;1.10;0.80;;;2.50;99.90;;;;;;5074080;28;20480;-83
2023/03/16 07:32:03;;;;;;;1.03;0.83;;;2.70;99.90;;;;;;5074218;28;20473;-84
2023/03/16 07:34:30;;;;;;;0.47;0.47;;;2.70;99.90;;;;;;5074159;28;20841;-83
2023/03/16 07:36:57;;;;;;;0.43;0.43;;;2.80;99.90;;;;;;5073761;28;20960;-84
2023/03/16 07:39:23;;;;;;;1.13;0.93;;;2.80;99.90;;;;;;5074038;28;20473;-84
2023/03/16 07:41:52;;;;;;;0.73;0.73;;;2.90;99.90;;;;;;5073750;28;20910;-84
2023/03/16 07:44:18;;;;;;;2.60;1.00;;;2.90;99.90;;;;;;5074263;28;20468;-83
2023/03/16 07:46:45;;;;;;;1.17;0.60;;;3.00;99.90;;;;;;5073609;28;20561;-84
2023/03/16 07:49:12;;;;;;;1.63;0.43;;;3.00;99.90;;;;;;5073567;28;21009;-84
2023/03/16 07:51:39;;;;;;;8.27;1.17;;;3.10;99.90;;;;;;5073891;28;20502;-84
2023/03/16 07:54:06;;;;;;;2.57;1.07;;;3.20;99.90;;;;;;5073528;28;20977;-84
2023/03/16 07:56:33;;;;;;;1.50;0.57;;;3.20;99.90;;;;;;5074604;28;20445;-83
2023/03/16 07:59:01;;;;;;;0.70;0.70;;;3.20;99.90;;;;;;5074855;28;20488;-83
2023/03/16 08:01:28;;;;;;;0.37;0.33;;;3.30;99.90;;;;;;5075199;28;20963;-84
2023/03/16 08:03:55;;;;;;;0.80;0.80;;;3.50;99.90;;;;;;5074207;28;20453;-84
2023/03/16 08:06:24;;;;;;;2.03;1.23;;;3.60;99.90;;;;;;5073893;28;20944;-83
2023/03/16 08:08:51;;;;;;;0.40;0.40;;;3.70;99.90;;;;;;5073550;28;20538;-83
2023/03/16 08:11:22;;;;;;;2.63;0.70;;;3.80;99.90;;;;;;5075531;28;20921;-82
2023/03/16 08:13:52;;;;;;;4.67;2.00;;;4.00;99.90;;;;;;5076089;28;20464;-83
2023/03/16 08:16:21;;;;;;;0.30;0.30;;;4.10;99.90;;;;;;5074975;28;20505;-83
2023/03/16 08:18:49;;;;;;;1.23;0.40;;;4.10;99.90;;;;;;5075969;28;20480;-82
2023/03/16 08:21:16;;;;;;;3.00;0.60;;;4.30;99.90;;;;;;5076050;28;20457;-83
2023/03/16 08:23:47;;;;;;;2.53;0.83;;;4.40;99.90;;;;;;5073367;28;20446;-83
2023/03/16 08:26:16;;;;;;;0.60;0.50;;;4.40;99.90;;;;;;5073323;28;20437;-81
2023/03/16 08:28:45;;;;;;;0.60;0.60;;;4.70;99.90;;;;;;5076193;28;20454;-84
2023/03/16 08:31:13;;;;;;;0.80;0.63;;;4.80;99.90;;;;;;5074541;28;20481;-82
2023/03/16 08:33:42;;;;;;;0.70;0.57;;;5.00;99.90;;;;;;5084287;28;20471;-83
2023/03/16 08:36:12;;;;;;;1.17;0.50;;;5.20;99.90;;;;;;5073552;28;21031;-83
2023/03/16 08:38:39;;;;;;;0.50;0.50;;;5.20;99.90;;;;;;5073418;28;20484;-83
2023/03/16 08:41:06;;;;;;;0.70;0.60;;;5.50;99.90;;;;;;5073788;28;20445;-83
2023/03/16 08:43:33;;;;;;;2.40;0.90;;;5.60;99.90;;;;;;5073496;28;20453;-82
2023/03/16 08:46:03;;;;;;;3.10;0.87;;;5.80;99.90;;;;;;5072914;28;20477;-82
2023/03/16 08:48:29;;;;;;;1.40;0.73;;;5.90;99.90;;;;;;5073309;28;20512;-82
2023/03/16 08:50:59;;;;;;;1.87;1.77;;;6.10;99.90;;;;;;5073186;28;20457;-82
2023/03/16 08:53:27;;;;;;;0.83;0.60;;;6.30;99.90;;;;;;5074456;28;20437;-82
2023/03/16 08:56:02;;;;;;;4.53;0.50;;;6.50;99.90;;;;;;5073871;28;20508;-82
2023/03/16 08:58:29;;;;;;;0.67;0.43;;;6.80;99.90;;;;;;5073910;28;20893;-83
2023/03/16 09:00:56;;;;;;;0.40;0.40;;;6.80;99.90;;;;;;5075999;28;20446;-83
2023/03/16 09:03:22;;;;;;;3.37;0.70;;;6.90;99.90;;;;;;5074110;28;20445;-82
2023/03/16 09:05:49;;;;;;;0.60;0.60;;;7.00;99.90;;;;;;5073679;28;20441;-81
2023/03/16 09:08:18;;;;;;;2.03;1.03;;;7.10;99.90;;;;;;5073067;28;20474;-82
2023/03/16 09:10:45;;;;;;;0.63;0.63;;;7.40;99.90;;;;;;5073029;28;20450;-82
2023/03/16 09:13:13;;;;;;;0.30;0.30;;;7.80;99.90;;;;;;5073029;28;20449;-82
2023/03/16 09:15:39;;;;;;;0.40;0.30;;;8.60;99.90;;;;;;5072821;28;20457;-82
2023/03/16 09:18:06;;;;;;;4.03;1.47;;;9.90;99.90;;;;;;5072821;28;20485;-82
2023/03/16 09:20:33;;;;;;;1.17;0.50;;;11.40;99.90;;;;;;5072720;28;20826;-82
2023/03/16 09:23:00;;;;;;;0.77;0.77;;;12.20;99.90;;;;;;5072931;28;20454;-82
2023/03/16 09:25:28;;;;;;;1.67;0.80;;;13.10;99.90;;;;;;5072904;28;20560;-82
2023/03/16 09:27:54;;;;;;;0.77;0.57;;;14.20;99.90;;;;;;5072571;28;20450;-82
2023/03/16 09:30:21;;;;;;;0.50;0.50;;;15.60;95.80;;;;;;5072566;28;20438;-82
2023/03/16 09:32:49;;;;;;;1.23;1.13;;;15.90;91.70;;;;;;5072527;28;20449;-82
2023/03/16 09:35:16;;;;;;;1.17;0.70;;;16.50;88.80;;;;;;5072790;28;20487;-82
2023/03/16 09:37:42;;;;;;;0.83;0.83;;;17.00;81.60;;;;;;5074747;28;20445;-82
2023/03/16 09:40:20;;;;;;;1.10;0.63;;;17.40;76.00;;;;;;5076214;28;20438;-82
2023/03/16 09:42:59;;;;;;;1.27;0.60;;;17.30;73.20;;;;;;5076432;28;20429;-82
2023/03/16 09:45:35;;;;;;;0.70;0.50;;;16.60;72.40;;;;;;5076587;28;20426;-82
2023/03/16 09:48:04;;;;;;;1.40;0.70;;;16.10;72.60;;;;;;5076496;28;20472;-82
2023/03/16 09:50:35;;;;;;;2.73;1.30;;;16.10;73.70;;;;;;5076720;28;20457;-83
2023/03/16 09:53:14;;;;;;;1.90;1.20;;;16.00;73.70;;;;;;5076761;28;20803;-82
2023/03/16 09:55:47;;;;;;;0.80;0.60;;;14.80;74.40;;;;;;5075995;28;20530;-79
2023/03/16 09:58:18;;;;;;;0.70;0.70;;;15.00;75.00;;;;;;5076158;28;20477;-83
2023/03/16 10:00:54;;;;;;;1.23;0.60;;;15.20;76.30;;;;;;5077160;28;20491;-84
2023/03/16 10:03:33;;;;;;;1.93;1.03;;;15.50;73.70;;;;;;5077189;28;20420;-84
2023/03/16 10:06:02;;;;;;;1.20;0.90;;;15.90;74.50;;;;;;5076296;28;20437;-83
2023/03/16 10:08:35;;;;;;;0.73;0.57;;;16.00;74.90;;;;;;5076134;28;20465;-83
2023/03/16 10:11:22;;;;;;;2.20;0.83;;;15.90;75.50;;;;;;5077032;28;20452;-83
2023/03/16 10:13:55;;;;;;;1.50;0.90;;;16.20;70.90;;;;;;5076513;28;20430;-83
2023/03/16 10:16:27;;;;;;;2.20;0.80;;;16.60;72.40;;;;;;5076098;28;20486;-83
2023/03/16 10:19:01;;;;;;;0.97;0.70;;;16.80;68.20;;;;;;5075868;28;20980;-82
2023/03/16 10:21:33;;;;;;;0.70;0.60;;;16.60;71.00;;;;;;5076074;28;20886;-82
2023/03/16 10:24:03;;;;;;;2.80;1.03;;;16.70;68.90;;;;;;5076035;28;20438;-83
2023/03/16 10:26:37;;;;;;;0.70;0.53;;;16.20;68.60;;;;;;5076861;28;20533;-83
2023/03/16 10:29:11;;;;;;;1.80;0.90;;;15.80;68.80;;;;;;5075980;28;20499;-83
2023/03/16 10:31:40;;;;;;;1.07;0.70;;;15.80;67.50;;;;;;5076178;28;20437;-82
2023/03/16 10:34:09;;;;;;;1.90;0.70;;;16.10;68.60;;;;;;5075804;28;20441;-82
2023/03/16 10:36:40;;;;;;;1.00;0.90;;;16.50;68.00;;;;;;5075574;28;20485;-83
2023/03/16 10:39:13;;;;;;;0.57;0.50;;;16.30;65.50;;;;;;5075545;28;20527;-82
2023/03/16 10:41:44;;;;;;;0.70;0.43;;;16.70;67.70;;;;;;5076032;28;20431;-84
2023/03/16 10:44:14;;;;;;;1.23;0.80;;;18.10;65.00;;;;;;5076110;28;20472;-83
2023/03/16 10:46:44;;;;;;;0.70;0.70;;;19.70;63.00;;;;;;5075366;28;20469;-82
2023/03/16 10:49:24;;;;;;;0.97;0.50;;;20.20;55.30;;;;;;5074621;28;20476;-83
2023/03/16 10:51:53;;;;;;;1.57;0.93;;;20.20;54.80;;;;;;5074948;28;20984;-83
2023/03/16 10:54:27;;;;;;;0.50;0.50;;;20.50;53.90;;;;;;5075016;28;20438;-83
2023/03/16 10:56:54;;;;;;;0.77;0.57;;;20.80;52.80;;;;;;5075598;28;20473;-83
2023/03/16 10:59:33;;;;;;;0.60;0.40;;;20.50;51.30;;;;;;5075060;28;20977;-83
2023/03/16 11:02:02;;;;;;;0.50;0.50;;;21.20;50.90;;;;;;5075253;28;20433;-83
2023/03/16 11:04:32;;;;;;;0.50;0.50;;;21.10;49.10;;;;;;5074712;28;20461;-83
2023/03/16 11:06:59;;;;;;;0.67;0.67;;;21.30;50.50;;;;;;5074903;28;20445;-82
2023/03/16 11:09:31;;;;;;;0.87;0.57;;;20.60;48.60;;;;;;5074720;28;20466;-83
2023/03/16 11:11:59;;;;;;;0.90;0.63;;;20.30;51.10;;;;;;5074433;28;20894;-83
2023/03/16 11:14:28;;;;;;;0.70;0.50;;;19.40;52.00;;;;;;5077693;28;20472;-82
2023/03/16 11:17:03;;;;;;;0.87;0.63;;;18.00;52.10;;;;;;5075751;28;20492;-82
2023/03/16 11:19:33;;;;;;;1.20;0.60;;;16.70;54.80;;;;;;5075539;28;20457;-82
2023/03/16 11:22:03;;;;;;;1.43;0.60;;;15.30;55.80;;;;;;5076106;28;20442;-83
2023/03/16 11:24:40;;;;;;;0.50;0.43;;;14.40;57.40;;;;;;5075943;28;20433;-83
2023/03/16 11:27:17;;;;;;;0.50;0.50;;;13.90;60.70;;;;;;5075076;28;20966;-82
2023/03/16 11:30:03;;;;;;;1.10;0.70;;;13.60;61.10;;;;;;5075165;28;20828;-83
2023/03/16 11:32:35;;;;;;;1.90;0.50;;;13.20;61.90;;;;;;5074842;28;20433;-82
2023/03/16 11:35:03;;;;;;;0.90;0.57;;;12.80;62.20;;;;;;5075266;28;20446;-82
2023/03/16 11:37:41;;;;;;;1.10;0.43;;;12.50;65.20;;;;;;5075185;28;20523;-82
2023/03/16 11:40:20;;;;;;;0.60;0.60;;;12.30;65.10;;;;;;5075091;28;20532;-83
2023/03/16 11:42:59;;;;;;;0.70;0.70;;;12.40;65.90;;;;;;5075334;28;20425;-82
2023/03/16 11:45:36;;;;;;;1.73;0.40;;;12.30;66.30;;;;;;5074294;28;20537;-82
2023/03/16 11:48:35;;;;;;;0.77;0.40;;;12.00;65.50;;;;;;5074002;28;20465;-82
2023/03/16 11:51:09;;;;;;;1.17;1.00;;;11.90;66.90;;;;;;5074005;28;20446;-82
2023/03/16 11:53:47;;;;;;;0.50;0.40;;;12.00;67.30;;;;;;5073605;28;20430;-84
2023/03/16 11:56:28;;;;;;;0.40;0.40;;;11.90;67.30;;;;;;5073839;28;20476;-83
2023/03/16 11:59:30;;;;;;;1.20;0.50;;;11.80;66.40;;;;;;5073559;28;20458;-83
2023/03/16 12:02:27;;;;;;;0.50;0.50;;;11.80;69.20;;;;;;5074686;28;20433;-84
2023/03/16 12:05:10;;;;;;;0.90;0.53;;;12.00;67.00;;;;;;5074264;28;20540;-84
2023/03/16 12:07:49;;;;;;;0.60;0.60;;;11.90;67.20;;;;;;5073825;28;20524;-83
2023/03/16 12:10:25;;;;;;;0.40;0.37;;;11.90;66.40;;;;;;5073527;28;20437;-84
2023/03/16 12:13:01;;;;;;;1.50;0.80;;;12.10;67.90;;;;;;5073742;28;20490;-83
2023/03/16 12:15:34;;;;;;;0.37;0.30;;;12.30;68.70;;;;;;5073795;28;20444;-83
2023/03/16 12:18:10;;;;;;;0.73;0.73;;;12.20;67.60;;;;;;5073539;28;20997;-84
2023/03/16 12:20:44;;;;;;;0.80;0.70;;;12.00;66.60;;;;;;5073758;28;20437;-83
2023/03/16 12:23:14;;;;;;;0.50;0.40;;;11.80;67.50;;;;;;5073490;28;20927;-83
2023/03/16 12:25:47;;;;;;;1.00;0.60;;;11.50;68.40;;;;;;5073303;28;21002;-81
2023/03/16 12:28:20;;;;;;;0.93;0.93;;;11.50;69.40;;;;;;5073392;28;20811;-81
2023/03/16 12:30:57;;;;;;;0.60;0.50;;;11.50;70.80;;;;;;5073112;28;20811;-80
2023/03/16 12:33:34;;;;;;;0.40;0.40;;;11.70;70.80;;;;;;5073032;28;20943;-81
2023/03/16 12:36:08;;;;;;;0.67;0.67;;;11.70;69.60;;;;;;5073311;28;20472;-80
2023/03/16 12:38:47;;;;;;;6.93;0.67;;;11.60;68.00;;;;;;5073302;28;20466;-80
2023/03/16 12:41:22;;;;;;;1.10;0.63;;;11.60;68.90;;;;;;5073355;28;20426;-81
2023/03/16 12:44:02;;;;;;;0.87;0.47;;;11.50;68.10;;;;;;5073318;28;20499;-81
2023/03/16 12:46:39;;;;;;;0.50;0.50;;;11.50;69.10;;;;;;5072913;28;20543;-81
2023/03/16 12:49:08;;;;;;;0.60;0.47;;;11.50;69.30;;;;;;5073201;28;20491;-81
2023/03/16 12:51:37;;;;;;;0.83;0.63;;;11.40;68.10;;;;;;5073067;28;20453;-81
2023/03/16 12:54:06;;;;;;;1.87;0.60;;;11.40;68.60;;;;;;5073146;28;20452;-81
2023/03/16 12:56:34;;;;;;;0.70;0.50;;;11.20;67.70;;;;;;5072784;28;20511;-81
2023/03/16 12:59:04;;;;;;;0.90;0.50;;;11.20;67.90;;;;;;5073063;28;20560;-81
2023/03/16 13:01:38;;;;;;;0.40;0.30;;;11.20;68.20;;;;;;5072806;28;20879;-81
2023/03/16 13:04:13;;;;;;;0.50;0.50;;;11.10;68.10;;;;;;5073101;28;20436;-81
2023/03/16 13:06:44;;;;;;;0.77;0.77;;;11.10;69.10;;;;;;5072769;28;20429;-81